Time;durP1;ratioP1;P1;durP2;ratioP2;P2;SDS_P1;SDS_P2;PMS_P1;PMS_P2;Temp;Humidity;BMP_temperature;BMP_pressure;BME280_temperature;BME280_humidity;BME280_pressure;Samples;Min_cycle;Max_cycle;Signal;HPM_P1;HPM_P2
2021/12/11 00:01:18;;;;;;;42.28;29.00;;;;;;;2.19;90.14;100432.22;5033226;28;20037;-79
2021/12/11 00:04:00;;;;;;;46.83;30.50;;;;;;;1.96;90.50;100400.69;5075513;28;20777;-79
2021/12/11 00:06:30;;;;;;;49.50;31.30;;;;;;;2.00;89.90;100424.16;5092906;28;20044;-79
2021/12/11 00:08:59;;;;;;;48.78;30.20;;;;;;;2.21;89.68;100450.53;5116524;28;20078;-79
2021/12/11 00:11:35;;;;;;;44.13;31.67;;;;;;;2.20;89.96;100456.69;5104059;28;20039;-81
2021/12/11 00:14:03;;;;;;;45.83;32.13;;;;;;;2.13;89.92;100463.91;5095566;28;20429;-79
2021/12/11 00:16:31;;;;;;;39.83;28.30;;;;;;;2.03;89.63;100446.78;5095805;28;20026;-81
2021/12/11 00:19:02;;;;;;;51.13;32.83;;;;;;;2.05;89.84;100465.94;5095647;28;20031;-80
2021/12/11 00:21:29;;;;;;;42.90;29.83;;;;;;;1.88;89.31;100455.16;5095924;28;20020;-80
2021/12/11 00:24:06;;;;;;;43.13;28.93;;;;;;;1.85;90.09;100450.03;5077484;28;20020;-80
2021/12/11 00:26:37;;;;;;;43.93;30.63;;;;;;;1.93;89.62;100480.31;5095011;28;20028;-80
2021/12/11 00:29:04;;;;;;;42.37;29.50;;;;;;;1.94;89.53;100489.94;5103008;28;20031;-80
2021/12/11 00:31:31;;;;;;;46.43;30.47;;;;;;;1.84;89.64;100471.91;5113418;28;20106;-79
2021/12/11 00:33:57;;;;;;;51.77;31.10;;;;;;;1.91;89.66;100500.50;5095141;28;20520;-80
2021/12/11 00:36:31;;;;;;;45.27;31.40;;;;;;;1.70;89.36;100467.13;5104694;28;20052;-80
2021/12/11 00:39:08;;;;;;;45.37;32.00;;;;;;;1.56;89.64;100455.34;5115932;28;20019;-82
2021/12/11 00:41:35;;;;;;;47.30;33.37;;;;;;;1.85;89.84;100507.69;5115712;28;20019;-79
2021/12/11 00:44:01;;;;;;;48.00;33.97;;;;;;;1.88;89.99;100513.69;5078152;28;20031;-81
2021/12/11 00:46:28;;;;;;;48.73;33.30;;;;;;;1.83;89.84;100523.50;5095235;28;20024;-80
2021/12/11 00:48:55;;;;;;;50.77;33.13;;;;;;;1.74;89.70;100508.91;5095251;28;20498;-80
2021/12/11 00:51:22;;;;;;;48.03;34.90;;;;;;;1.86;90.41;100526.03;5095267;28;20069;-80
2021/12/11 00:53:55;;;;;;;50.63;34.73;;;;;;;1.73;89.65;100509.81;5094484;28;20089;-80
2021/12/11 00:56:27;;;;;;;49.83;34.37;;;;;;;1.77;89.63;100532.41;5094437;28;20020;-79
2021/12/11 00:58:55;;;;;;;51.10;33.23;;;;;;;1.64;90.11;100528.44;5077143;28;20059;-79
2021/12/11 01:01:51;;;;;;;47.10;34.27;;;;;;;1.78;89.85;100543.75;5094966;28;20020;-79
2021/12/11 01:04:41;;;;;;;48.20;32.93;;;;;;;1.71;90.06;100545.72;5094604;28;20103;-80
2021/12/11 01:07:20;;;;;;;;;;;;;;;1.83;89.37;100551.50;5094928;28;20487;-80
2021/12/11 01:09:56;;;;;;;50.43;33.87;;;;;;;1.70;89.71;100556.25;5094511;28;19994;-78
2021/12/11 01:12:40;;;;;;;47.73;33.33;;;;;;;1.66;89.41;100554.63;5094145;28;20052;-80
2021/12/11 01:15:13;;;;;;;50.97;34.70;;;;;;;1.71;90.18;100558.81;5076190;28;20058;-78
2021/12/11 01:20:52;;;;;;;47.88;32.92;;;;;;;1.46;89.67;100544.75;5094907;28;20146;-78
2021/12/11 01:25:58;;;;;;;;;;;;;;;1.73;89.32;100585.84;5094792;28;20358;-79
2021/12/11 01:28:24;;;;;;;56.13;36.43;;;;;;;1.50;90.25;100565.59;5076293;28;19915;-80
2021/12/11 01:30:50;;;;;;;55.13;36.00;;;;;;;1.45;89.97;100558.78;5094306;28;20081;-79
2021/12/11 01:33:15;;;;;;;56.23;36.40;;;;;;;1.59;90.25;100591.50;5094351;28;20498;-79
2021/12/11 01:35:42;;;;;;;51.00;35.83;;;;;;;1.52;89.83;100595.22;5094027;28;20447;-80
2021/12/11 01:38:19;;;;;;;55.37;35.47;;;;;;;1.57;89.98;100602.94;5096143;28;20169;-80
2021/12/11 01:40:50;;;;;;;57.17;36.57;;;;;;;1.51;90.25;100626.72;5096380;28;20028;-80
2021/12/11 01:43:15;;;;;;;;;;;;;;;1.64;89.98;100625.44;5110159;28;20039;-79
2021/12/11 01:45:44;;;;;;;53.37;34.10;;;;;;;1.51;89.57;100637.19;5094063;28;19916;-81
2021/12/11 01:48:09;;;;;;;48.73;34.07;;;;;;;1.45;89.78;100621.66;5093247;28;20024;-78
2021/12/11 01:50:43;;;;;;;50.87;34.73;;;;;;;1.42;89.20;100632.22;5075343;28;20047;-79
2021/12/11 01:53:14;;;;;;;51.70;34.87;;;;;;;1.47;89.33;100660.03;5093599;28;20035;-80
2021/12/11 01:55:54;;;;;;;50.30;33.67;;;;;;;1.48;89.97;100664.34;5093949;28;20418;-79
2021/12/11 01:58:32;;;;;;;;;;;;;;;1.59;89.67;100671.91;5093799;28;20059;-80
2021/12/11 02:01:03;;;;;;;52.40;33.43;;;;;;;1.32;89.47;100653.47;5075577;28;19912;-78
2021/12/11 02:03:32;;;;;;;49.33;34.27;;;;;;;1.37;89.66;100669.03;5086669;28;20027;-78
2021/12/11 02:05:58;;;;;;;51.33;34.53;;;;;;;1.42;89.44;100680.25;5111122;28;20173;-80
2021/12/11 02:08:33;;;;;;;52.53;35.00;;;;;;;1.47;90.17;100694.09;5110725;28;20024;-79
2021/12/11 02:11:09;;;;;;;50.20;34.03;;;;;;;1.55;89.92;100691.22;5080674;28;20024;-79
2021/12/11 02:13:44;;;;;;;49.27;33.53;;;;;;;1.54;90.05;100679.91;5075159;28;20032;-79
2021/12/11 02:16:38;;;;;;;52.83;35.63;;;;;;;1.65;90.38;100692.69;5074883;28;20040;-82
2021/12/11 02:19:16;;;;;;;55.23;35.90;;;;;;;1.53;89.90;100683.44;4994966;28;20530;-79
2021/12/11 02:22:07;;;;;;;53.43;33.30;;;;;;;1.69;90.41;100701.34;5028888;28;20041;-79
2021/12/11 02:24:52;;;;;;;49.07;32.80;;;;;;;1.68;90.32;100705.72;5023227;28;20041;-80
2021/12/11 02:27:21;;;;;;;49.93;32.57;;;;;;;1.66;89.94;100709.28;5029182;28;20036;-80
2021/12/11 02:29:54;;;;;;;45.50;31.67;;;;;;;1.67;90.29;100713.59;5030931;28;20455;-81
2021/12/11 02:32:38;;;;;;;47.83;32.30;;;;;;;1.68;89.93;100723.22;5014423;28;20029;-79
2021/12/11 02:35:12;;;;;;;49.57;33.73;;;;;;;1.70;90.18;100734.50;5030312;28;20580;-79
2021/12/11 02:37:44;;;;;;;44.67;31.80;;;;;;;1.62;89.71;100729.50;5011904;28;20381;-79
2021/12/11 02:40:34;;;;;;;49.53;33.07;;;;;;;1.61;89.83;100746.09;5021491;28;20025;-78
2021/12/11 02:43:07;;;;;;;45.57;31.53;;;;;;;1.67;89.95;100750.31;5018427;28;20555;-81
2021/12/11 02:45:42;;;;;;;47.43;30.87;;;;;;;1.67;89.85;100743.31;5026382;28;20031;-79
2021/12/11 02:48:23;;;;;;;50.27;33.03;;;;;;;1.72;90.31;100751.06;5011075;28;20045;-80
2021/12/11 02:50:56;;;;;;;47.23;31.90;;;;;;;1.73;90.04;100758.84;5025574;28;20197;-80
2021/12/11 02:53:27;;;;;;;48.23;32.20;;;;;;;1.73;89.83;100755.38;5030743;28;20459;-80
2021/12/11 02:55:59;;;;;;;46.30;31.90;;;;;;;1.62;90.02;100739.97;5041962;28;20081;-80
2021/12/11 02:58:29;;;;;;;43.43;31.63;;;;;;;1.76;89.82;100768.41;5082663;28;20031;-79
2021/12/11 03:01:04;;;;;;;48.57;32.83;;;;;;;1.71;89.53;100773.78;5090859;28;20081;-79
2021/12/11 03:03:40;;;;;;;49.63;32.97;;;;;;;1.65;89.72;100767.84;5073939;28;20395;-79
2021/12/11 03:06:15;;;;;;;48.53;32.87;;;;;;;1.62;90.18;100773.16;5055430;28;20049;-79
2021/12/11 03:08:41;;;;;;;42.65;30.20;;;;;;;1.71;89.75;100781.66;5092123;28;20031;-80
2021/12/11 03:11:14;;;;;;;49.50;32.10;;;;;;;1.64;89.81;100787.94;5082198;28;20060;-80
2021/12/11 03:13:40;;;;;;;49.90;32.43;;;;;;;1.61;90.03;100787.19;5073057;28;20103;-79
2021/12/11 03:16:09;;;;;;;46.30;31.63;;;;;;;1.53;90.44;100777.78;5072590;28;20517;-79
2021/12/11 03:18:35;;;;;;;48.50;32.27;;;;;;;1.65;90.25;100788.81;5073023;28;20021;-79
2021/12/11 03:21:02;;;;;;;47.37;30.97;;;;;;;1.57;90.35;100800.38;5073261;28;20049;-79
2021/12/11 03:23:27;;;;;;;47.75;33.53;;;;;;;1.64;90.32;100802.81;5075828;28;20024;-80
2021/12/11 03:25:53;;;;;;;47.60;31.97;;;;;;;1.57;90.80;100791.66;5085211;28;20035;-81
2021/12/11 03:28:21;;;;;;;48.13;33.10;;;;;;;1.61;90.38;100803.75;5085010;28;20475;-80
2021/12/11 03:30:57;;;;;;;51.53;32.00;;;;;;;1.68;90.93;100810.56;5090325;28;20073;-80
2021/12/11 03:33:26;;;;;;;48.87;32.47;;;;;;;1.73;90.81;100813.91;5079156;28;20024;-79
2021/12/11 03:35:52;;;;;;;45.90;31.27;;;;;;;1.66;90.83;100814.13;5096446;28;20023;-81
2021/12/11 03:38:18;;;;;;;50.80;33.23;;;;;;;1.58;90.65;100803.84;5096574;28;20398;-80
2021/12/11 03:40:44;;;;;;;49.60;31.30;;;;;;;1.48;91.18;100776.19;5084507;28;20142;-79
2021/12/11 03:43:16;;;;;;;47.47;31.50;;;;;;;1.58;91.03;100782.88;5092469;28;20024;-79
2021/12/11 03:45:43;;;;;;;44.23;31.70;;;;;;;1.75;91.08;100814.75;5076131;28;20039;-80
2021/12/11 03:48:34;;;;;;;43.57;30.10;;;;;;;1.82;91.09;100820.66;5087215;28;20107;-79
2021/12/11 03:51:05;;;;;;;53.20;32.67;;;;;;;1.80;91.40;100825.97;5001787;28;20033;-79
2021/12/11 03:53:30;;;;;;;47.53;31.47;;;;;;;1.77;91.34;100822.56;5014181;28;20124;-79
2021/12/11 03:55:59;;;;;;;45.67;31.87;;;;;;;1.75;91.43;100817.34;4997073;28;20674;-80
2021/12/11 03:58:25;;;;;;;40.90;29.30;;;;;;;1.71;91.32;100820.97;4996073;28;20034;-80
2021/12/11 04:01:06;;;;;;;53.00;34.50;;;;;;;1.73;91.87;100815.69;4996103;28;20044;-79
2021/12/11 04:03:34;;;;;;;54.23;34.97;;;;;;;1.88;92.23;100838.00;5014194;28;20431;-80
2021/12/11 04:06:03;;;;;;;51.00;33.70;;;;;;;1.90;92.25;100842.31;5013776;28;20193;-80
2021/12/11 04:08:37;;;;;;;53.90;34.53;;;;;;;1.94;91.93;100838.72;5013867;28;20413;-80
2021/12/11 04:11:03;;;;;;;55.93;35.53;;;;;;;1.98;92.22;100840.34;5007732;28;20111;-79
2021/12/11 04:13:29;;;;;;;57.63;34.90;;;;;;;1.81;92.45;100814.56;4994295;28;20484;-80
2021/12/11 04:15:54;;;;;;;53.33;35.30;;;;;;;1.90;92.29;100836.19;4997630;28;20037;-79
2021/12/11 04:18:20;;;;;;;49.00;33.53;;;;;;;1.89;92.16;100831.88;4977909;28;20027;-79
2021/12/11 04:20:48;;;;;;;52.03;34.83;;;;;;;2.02;92.77;100856.84;5002441;28;20117;-79
2021/12/11 04:23:15;;;;;;;50.60;33.67;;;;;;;2.04;92.90;100861.16;5011635;28;20385;-81
2021/12/11 04:25:44;;;;;;;55.28;35.92;;;;;;;1.94;93.07;100850.94;4990549;28;20033;-78
2021/12/11 04:28:12;;;;;;;51.47;33.75;;;;;;;2.07;93.27;100869.84;5041115;28;20059;-80
2021/12/11 04:30:40;;;;;;;52.10;34.42;;;;;;;1.80;93.09;100827.72;5074969;28;20016;-80
2021/12/11 04:33:05;;;;;;;50.67;33.33;;;;;;;2.09;93.20;100854.91;5074886;28;20071;-79
2021/12/11 04:35:31;;;;;;;53.60;33.87;;;;;;;2.19;93.04;100880.00;5074438;28;20079;-81
2021/12/11 04:37:59;;;;;;;55.00;35.28;;;;;;;2.17;93.08;100882.63;5075004;28;20043;-80
2021/12/11 04:40:29;;;;;;;54.53;35.10;;;;;;;2.14;93.37;100876.63;5057303;28;20545;-79
2021/12/11 04:43:02;;;;;;;48.97;32.03;;;;;;;2.08;93.10;100868.94;5075267;28;20409;-79
2021/12/11 04:45:38;;;;;;;49.67;33.50;;;;;;;2.05;93.62;100859.38;5075096;28;20371;-80
2021/12/11 04:48:25;;;;;;;48.67;33.23;;;;;;;2.12;93.77;100884.56;5074963;28;20051;-80
2021/12/11 04:51:00;;;;;;;52.80;34.77;;;;;;;2.22;93.91;100903.50;5063296;28;20063;-79
2021/12/11 05:04:33;;;;;;;49.58;34.25;;;;;;;2.17;93.65;100894.91;5081938;28;20078;-79
2021/12/11 05:07:16;;;;;;;45.40;31.38;;;;;;;2.30;93.92;100911.19;5094432;28;20056;-79
2021/12/11 05:10:21;;;;;;;51.33;34.20;;;;;;;2.41;93.59;100924.84;5095143;28;20455;-79
2021/12/11 05:12:49;;;;;;;45.10;30.73;;;;;;;2.19;93.43;100893.97;5074481;28;20459;-79
2021/12/11 05:15:18;;;;;;;48.03;32.50;;;;;;;2.39;93.86;100931.91;5056432;28;20032;-79
2021/12/11 05:17:45;;;;;;;50.87;34.10;;;;;;;2.40;94.11;100931.84;5074355;28;20017;-78
2021/12/11 05:20:14;;;;;;;52.47;33.90;;;;;;;2.41;93.88;100938.84;5074378;28;20627;-80
2021/12/11 05:22:39;;;;;;;49.47;32.08;;;;;;;2.31;94.27;100916.38;5056594;28;20505;-80
2021/12/11 05:25:07;;;;;;;48.22;31.17;;;;;;;2.41;94.21;100953.72;5071600;28;20111;-79
2021/12/11 05:27:32;;;;;;;48.10;31.27;;;;;;;2.42;94.00;100951.06;5094485;28;20408;-79
2021/12/11 05:29:58;;;;;;;52.20;33.37;;;;;;;2.43;93.81;100955.41;5067130;28;20075;-80
2021/12/11 05:32:25;;;;;;;50.05;32.80;;;;;;;2.46;94.27;100957.94;5055556;28;20033;-80
2021/12/11 05:34:52;;;;;;;45.63;32.25;;;;;;;2.18;94.21;100909.75;5073608;28;20040;-80
2021/12/11 05:37:17;;;;;;;50.47;31.30;;;;;;;2.40;94.65;100947.59;5073768;28;20523;-79
2021/12/11 05:39:43;;;;;;;53.13;33.73;;;;;;;2.46;94.42;100950.06;5073996;28;20024;-79
2021/12/11 05:42:09;;;;;;;50.75;33.83;;;;;;;2.34;94.72;100945.16;5073411;28;20107;-80
2021/12/11 05:44:35;;;;;;;47.50;31.60;;;;;;;2.31;94.57;100931.25;5073582;28;20108;-79
2021/12/11 05:47:02;;;;;;;49.88;32.72;;;;;;;2.47;94.58;100962.31;5072455;28;20032;-79
2021/12/11 05:49:29;;;;;;;51.50;33.67;;;;;;;2.42;94.65;100971.19;5073627;28;20040;-79
2021/12/11 05:51:57;;;;;;;49.60;33.28;;;;;;;2.44;94.59;100972.00;5055388;28;20032;-78
2021/12/11 05:54:26;;;;;;;49.00;33.00;;;;;;;2.42;94.93;100971.19;5071842;28;20519;-79
2021/12/11 05:56:55;;;;;;;47.35;31.92;;;;;;;2.45;94.65;100987.72;5073603;28;20083;-79
2021/12/11 05:59:22;;;;;;;46.92;32.53;;;;;;;2.46;94.83;100980.69;5073672;28;20048;-80
2021/12/11 06:01:56;;;;;;;51.27;32.10;;;;;;;2.44;95.29;100975.50;5073395;28;20029;-79
2021/12/11 06:04:26;;;;;;;50.13;33.57;;;;;;;2.47;95.37;100980.69;5073158;28;20103;-80
2021/12/11 06:06:54;;;;;;;51.20;33.63;;;;;;;2.44;95.58;100982.50;5088140;28;20040;-79
2021/12/11 06:09:22;;;;;;;49.53;32.70;;;;;;;2.25;95.53;100948.88;5093597;28;21483;-81
2021/12/11 06:11:51;;;;;;;52.47;32.97;;;;;;;2.28;95.76;100975.03;5093819;28;20370;-79
2021/12/11 06:14:17;;;;;;;46.72;32.75;;;;;;;2.41;95.75;100986.09;5093460;28;20478;-79
2021/12/11 06:16:48;;;;;;;50.23;33.97;;;;;;;2.43;96.00;101002.66;5093686;28;20016;-79
2021/12/11 06:19:18;;;;;;;48.78;33.35;;;;;;;2.38;96.25;100994.06;5075044;28;20126;-80
2021/12/11 06:21:44;;;;;;;;;;;;;;;2.50;95.59;101008.63;5093850;28;20356;-80
2021/12/11 06:24:09;;;;;;;47.50;32.67;;;;;;;2.38;95.65;101003.66;5079525;28;20007;-80
2021/12/11 06:26:35;;;;;;;49.77;33.10;;;;;;;2.46;96.51;101023.56;5093075;28;20024;-79
2021/12/11 06:29:01;;;;;;;52.83;34.60;;;;;;;2.47;96.04;101024.41;5093355;28;20058;-79
2021/12/11 06:31:26;;;;;;;52.63;35.13;;;;;;;2.50;96.12;101021.72;5093071;28;20031;-80
2021/12/11 06:33:53;;;;;;;51.90;34.53;;;;;;;2.48;96.39;101024.38;5101734;28;20386;-79
2021/12/11 06:36:20;;;;;;;60.43;37.20;;;;;;;2.52;96.56;101032.19;5092912;28;20424;-80
2021/12/11 06:38:48;;;;;;;61.00;36.77;;;;;;;2.54;96.72;101033.00;5092734;28;20062;-80
2021/12/11 06:41:17;;;;;;;64.87;41.00;;;;;;;2.44;96.66;101025.38;5072864;28;20029;-79
2021/12/11 06:43:42;;;;;;;69.87;41.33;;;;;;;2.48;97.06;101031.41;5086590;28;20431;-78
2021/12/11 06:46:08;;;;;;;62.10;41.27;;;;;;;2.52;97.43;101040.91;5093023;28;20063;-79
2021/12/11 06:48:35;;;;;;;66.63;41.77;;;;;;;2.54;97.37;101046.13;5092576;28;20024;-79
2021/12/11 06:51:01;;;;;;;65.30;42.63;;;;;;;2.61;97.04;101060.81;5092793;28;20039;-80
2021/12/11 06:53:55;;;;;;;74.07;45.50;;;;;;;2.63;98.22;101059.00;5092923;28;20016;-79
2021/12/11 06:56:23;;;;;;;68.33;43.83;;;;;;;2.48;97.62;101034.03;5074049;28;20016;-79
2021/12/11 06:58:51;;;;;;;67.13;42.97;;;;;;;2.68;97.55;101070.25;5092848;28;20432;-80
2021/12/11 07:01:19;;;;;;;66.57;44.07;;;;;;;2.63;98.08;101056.38;5092597;28;20019;-80
2021/12/11 07:03:45;;;;;;;66.47;43.50;;;;;;;2.62;97.50;101060.78;5092594;28;20034;-79
2021/12/11 07:06:12;;;;;;;70.93;45.67;;;;;;;2.76;98.01;101083.16;5092395;28;20055;-79
2021/12/11 07:08:39;;;;;;;71.93;46.47;;;;;;;2.61;98.06;101055.56;5071995;28;20738;-78
2021/12/11 07:11:07;;;;;;;67.57;46.70;;;;;;;2.76;97.86;101081.41;5072367;28;20044;-79
2021/12/11 07:13:32;;;;;;;68.37;43.13;;;;;;;2.78;98.21;101089.25;5092269;28;20020;-80
2021/12/11 07:15:58;;;;;;;71.37;46.53;;;;;;;1.74;98.24;100911.81;5082793;28;20368;-80
2021/12/11 07:18:27;;;;;;;72.13;46.30;;;;;;;2.81;98.56;101091.78;5092478;28;20043;-79
2021/12/11 07:20:53;;;;;;;67.28;45.50;;;;;;;2.82;98.36;101090.88;5092863;28;20543;-80
2021/12/11 07:23:19;;;;;;;64.03;43.43;;;;;;;2.71;98.05;101071.03;5092497;28;20059;-81
2021/12/11 07:25:50;;;;;;;66.65;43.33;;;;;;;2.89;97.98;101100.34;5092791;28;20048;-79
2021/12/11 07:28:16;;;;;;;63.75;43.78;;;;;;;2.78;98.12;101090.09;5074532;28;20034;-79
2021/12/11 07:30:45;;;;;;;65.73;43.30;;;;;;;2.79;98.32;101102.31;5074603;28;20043;-79
2021/12/11 07:33:12;;;;;;;67.68;43.05;;;;;;;2.76;98.74;101091.03;5092561;28;20436;-81
2021/12/11 07:35:39;;;;;;;64.85;40.75;;;;;;;2.98;98.05;101117.59;5092072;28;20382;-80
2021/12/11 07:38:05;;;;;;;60.80;38.85;;;;;;;2.97;98.22;101124.59;5092435;28;20031;-79
2021/12/11 07:40:36;;;;;;;68.97;41.92;;;;;;;2.96;98.21;101131.63;5092459;28;20031;-79
2021/12/11 07:43:03;;;;;;;60.67;39.57;;;;;;;2.85;98.87;101099.53;5092497;28;20103;-78
2021/12/11 07:45:29;;;;;;;57.45;36.55;;;;;;;2.90;97.62;101105.53;5092418;28;20051;-79
2021/12/11 07:47:55;;;;;;;57.93;37.70;;;;;;;3.04;98.39;101130.56;5073694;28;20047;-79
2021/12/11 07:50:21;;;;;;;58.78;35.90;;;;;;;2.99;98.56;101135.94;5073809;28;20032;-79
2021/12/11 07:52:47;;;;;;;55.00;35.03;;;;;;;2.93;98.22;101115.09;5092211;28;20035;-81
2021/12/11 07:55:15;;;;;;;54.17;33.27;;;;;;;3.00;98.57;101118.41;5092725;28;20378;-79
2021/12/11 07:57:40;;;;;;;49.67;31.37;;;;;;;3.14;98.43;101151.28;5092127;28;20032;-79
2021/12/11 08:00:09;;;;;;;54.60;31.98;;;;;;;3.19;98.57;101159.06;5092701;28;20020;-78
2021/12/11 08:02:34;;;;;;;47.40;28.13;;;;;;;3.10;98.15;101136.50;5073715;28;20074;-78
2021/12/11 08:05:00;;;;;;;43.47;28.70;;;;;;;3.14;98.14;101147.78;5092441;28;20063;-80
2021/12/11 08:07:25;;;;;;;51.15;27.50;;;;;;;3.29;97.92;101172.78;5072939;28;20585;-79
2021/12/11 08:09:51;;;;;;;45.05;24.80;;;;;;;3.18;98.10;101137.19;5094613;28;20035;-81
2021/12/11 08:12:17;;;;;;;45.10;23.88;;;;;;;3.24;98.51;101154.53;5078076;28;20024;-78
2021/12/11 08:14:44;;;;;;;36.20;23.27;;;;;;;3.22;98.97;101150.22;5095983;28;20024;-79
2021/12/11 08:17:11;;;;;;;41.22;20.88;;;;;;;3.28;98.82;101158.78;5095820;28;20020;-79
2021/12/11 08:19:37;;;;;;;43.05;19.38;;;;;;;3.17;98.80;101132.81;5077310;28;20069;-80
2021/12/11 08:22:06;;;;;;;41.08;19.95;;;;;;;3.49;98.44;101188.88;5077559;28;20487;-79
2021/12/11 08:24:32;;;;;;;36.80;19.65;;;;;;;3.39;98.02;101177.75;5095789;28;20471;-79
2021/12/11 08:27:02;;;;;;;41.83;17.98;;;;;;;3.48;98.78;101195.06;5095727;28;20025;-78
2021/12/11 08:29:28;;;;;;;36.65;16.17;;;;;;;3.33;98.22;101164.78;5095618;28;20047;-79
2021/12/11 08:31:56;;;;;;;34.83;15.68;;;;;;;3.56;98.35;101202.69;5095659;28;20031;-79
2021/12/11 08:34:21;;;;;;;31.90;15.55;;;;;;;3.34;98.84;101177.03;5095677;28;20016;-79
2021/12/11 08:36:47;;;;;;;44.75;15.02;;;;;;;3.58;98.72;101220.16;5095446;28;20425;-80
2021/12/11 08:39:15;;;;;;;39.90;14.70;;;;;;;3.67;99.35;101229.56;5095284;28;20028;-78
2021/12/11 08:41:43;;;;;;;36.10;13.50;;;;;;;3.70;99.32;101220.72;5095674;28;20012;-81
2021/12/11 08:44:12;;;;;;;34.53;12.57;;;;;;;3.68;98.94;101212.91;5095431;28;20024;-80
2021/12/11 08:46:41;;;;;;;36.38;11.60;;;;;;;3.80;98.89;101236.22;5095415;28;20028;-79
2021/12/11 08:49:27;;;;;;;29.02;10.77;;;;;;;3.91;98.80;101238.50;5094925;28;21766;-80
2021/12/11 08:51:57;;;;;;;31.92;10.80;;;;;;;3.98;98.69;101244.47;5094978;28;20424;-79
2021/12/11 08:54:25;;;;;;;26.58;9.90;;;;;;;3.98;98.21;101234.81;5076470;28;20022;-81
2021/12/11 08:56:51;;;;;;;23.45;9.10;;;;;;;3.96;98.55;101222.59;5094369;28;20039;-80
2021/12/11 08:59:19;;;;;;;30.10;9.60;;;;;;;4.13;98.08;101253.69;5093905;28;20070;-80
2021/12/11 09:01:53;;;;;;;36.80;8.93;;;;;;;4.18;98.14;101260.56;5094076;28;20050;-80
2021/12/11 09:04:40;;;;;;;28.92;9.40;;;;;;;4.13;98.42;101240.53;5094595;28;20027;-79
2021/12/11 09:07:19;;;;;;;33.72;8.30;;;;;;;4.29;98.17;101269.00;5077842;28;20048;-80
2021/12/11 09:09:53;;;;;;;28.05;8.10;;;;;;;4.31;97.55;101263.66;5073093;28;20199;-79
2021/12/11 09:12:25;;;;;;;23.75;7.35;;;;;;;4.38;96.83;101264.34;5056237;28;20048;-82
2021/12/11 09:15:00;;;;;;;28.73;7.35;;;;;;;4.54;97.66;101287.53;5055527;28;20040;-79
2021/12/11 09:17:32;;;;;;;25.77;7.28;;;;;;;4.61;97.21;101292.59;5073914;28;20048;-80
2021/12/11 09:20:11;;;;;;;24.42;7.10;;;;;;;4.59;96.96;101287.41;5056076;28;20037;-81
2021/12/11 09:22:42;;;;;;;24.30;7.15;;;;;;;4.82;96.70;101310.34;5073520;28;20024;-80
2021/12/11 09:25:14;;;;;;;22.95;6.32;;;;;;;4.91;95.99;101299.53;5055935;28;20107;-80
2021/12/11 09:27:51;;;;;;;31.92;6.55;;;;;;;5.10;95.51;101306.84;5074061;28;20035;-80
2021/12/11 09:30:42;;;;;;;21.90;5.80;;;;;;;5.14;94.92;101304.03;5074164;28;20534;-79
2021/12/11 09:33:20;;;;;;;32.25;7.05;;;;;;;5.20;94.63;101302.97;5057770;28;20043;-79
2021/12/11 09:35:59;;;;;;;16.77;6.40;;;;;;;5.46;93.75;101333.75;5073862;28;20387;-80
2021/12/11 09:38:33;;;;;;;21.45;6.20;;;;;;;5.59;93.60;101334.19;5073859;28;20034;-80
2021/12/11 09:40:59;;;;;;;21.42;5.95;;;;;;;5.78;92.81;101343.19;5073790;28;20103;-81
2021/12/11 09:43:51;;;;;;;19.50;6.07;;;;;;;5.86;92.25;101341.16;5072958;28;20120;-81
2021/12/11 09:46:22;;;;;;;21.77;5.65;;;;;;;5.90;92.65;101347.19;5053797;28;20056;-81
2021/12/11 09:48:49;;;;;;;20.35;5.85;;;;;;;5.80;91.88;101338.72;5053662;28;20044;-80
2021/12/11 09:51:18;;;;;;;20.02;5.90;;;;;;;5.93;91.58;101365.56;5053876;28;20380;-80
2021/12/11 09:53:50;;;;;;;20.23;6.05;;;;;;;5.88;91.92;101363.09;5053600;28;20071;-81
2021/12/11 09:56:24;;;;;;;21.55;5.78;;;;;;;5.92;91.74;101374.41;5054536;28;20115;-80
2021/12/11 09:58:49;;;;;;;23.20;5.45;;;;;;;5.87;91.91;101358.69;5055710;28;20366;-82
2021/12/11 10:01:23;;;;;;;17.90;5.78;;;;;;;5.80;91.68;101354.56;5072558;28;20032;-81
2021/12/11 10:04:00;;;;;;;21.70;6.07;;;;;;;5.93;91.82;101365.56;5064793;28;20025;-82
2021/12/11 10:07:13;;;;;;;16.48;5.93;;;;;;;6.00;91.91;101382.06;5073561;28;20052;-83
2021/12/11 10:09:45;;;;;;;19.75;6.03;;;;;;;5.89;91.04;101362.16;5077911;28;20039;-84
2021/12/11 10:12:17;;;;;;;18.23;5.88;;;;;;;6.11;90.74;101388.69;5080042;28;20127;-82
2021/12/11 10:15:04;;;;;;;17.65;6.05;;;;;;;5.93;90.89;101365.56;5080202;28;20028;-82
2021/12/11 10:17:37;;;;;;;14.27;5.35;;;;;;;6.13;90.30;101400.06;5091605;28;20126;-82
2021/12/11 10:20:09;;;;;;;15.85;5.40;;;;;;;6.00;91.08;101382.94;5090812;28;20039;-85
2021/12/11 10:22:38;;;;;;;16.90;4.75;;;;;;;6.02;90.83;101401.34;5086698;28;20031;-81
2021/12/11 10:25:09;;;;;;;21.33;5.85;;;;;;;6.10;90.53;101415.16;5079283;28;20036;-80
2021/12/11 10:27:35;;;;;;;22.67;6.25;;;;;;;6.17;90.51;101373.53;5084479;28;20063;-81
2021/12/11 10:30:04;;;;;;;20.25;5.95;;;;;;;6.80;88.48;101404.63;5093557;28;20081;-82
2021/12/11 10:32:32;;;;;;;25.08;6.20;;;;;;;7.21;87.31;101417.16;5092666;28;20031;-82
2021/12/11 10:35:08;;;;;;;16.35;5.60;;;;;;;7.24;85.37;101396.72;5093326;28;20077;-80
2021/12/11 10:37:37;;;;;;;16.85;5.43;;;;;;;7.70;84.36;101400.09;5087064;28;20027;-83
2021/12/11 10:40:14;;;;;;;16.42;5.80;;;;;;;8.21;81.52;101419.13;5092346;28;20028;-81
2021/12/11 10:42:41;;;;;;;15.80;4.70;;;;;;;8.77;79.44;101430.81;5093414;28;20059;-84
2021/12/11 10:45:09;;;;;;;16.13;4.63;;;;;;;9.12;77.77;101428.25;5093425;28;20028;-82
2021/12/11 10:47:40;;;;;;;15.93;4.68;;;;;;;9.35;76.74;101424.50;5092168;28;20493;-82
2021/12/11 10:50:15;;;;;;;16.15;4.97;;;;;;;9.60;75.42;101442.75;5092789;28;20061;-84
2021/12/11 10:52:40;;;;;;;12.23;4.65;;;;;;;9.75;75.07;101418.09;5092823;28;20374;-83
2021/12/11 10:55:11;;;;;;;16.85;5.15;;;;;;;10.18;74.74;101447.78;5093066;28;20035;-83
2021/12/11 10:57:37;;;;;;;12.10;5.85;;;;;;;9.89;73.25;101410.28;5091668;28;20039;-82
2021/12/11 11:00:09;;;;;;;20.58;6.47;;;;;;;9.75;74.43;101449.97;5090617;28;20024;-83
2021/12/11 11:02:35;;;;;;;17.17;5.25;;;;;;;9.36;74.28;101455.44;5092261;28;20028;-80
2021/12/11 11:05:14;;;;;;;14.98;4.57;;;;;;;8.74;76.59;101430.94;5092367;28;20038;-82
2021/12/11 11:07:42;;;;;;;14.50;5.15;;;;;;;8.63;77.41;101464.09;5092702;28;20032;-83
2021/12/11 11:10:15;;;;;;;15.68;4.93;;;;;;;8.09;79.02;101444.38;5092706;28;20035;-84
2021/12/11 11:12:40;;;;;;;10.93;4.80;;;;;;;7.85;80.14;101450.69;5091733;28;20024;-81
2021/12/11 11:15:07;;;;;;;22.15;5.00;;;;;;;7.74;80.96;101482.94;5091378;28;20093;-83
2021/12/11 11:17:33;;;;;;;16.27;5.13;;;;;;;7.53;82.12;101489.97;5092368;28;20101;-81
2021/12/11 11:20:02;;;;;;;16.33;5.15;;;;;;;7.36;83.43;101498.56;5089602;28;20138;-78
2021/12/11 11:22:33;;;;;;;18.85;5.28;;;;;;;7.12;84.55;101484.50;5082181;28;20385;-80
2021/12/11 11:25:14;;;;;;;15.48;5.20;;;;;;;7.05;84.79;101478.56;5084835;28;20480;-80
2021/12/11 11:27:43;;;;;;;17.50;4.78;;;;;;;6.89;85.00;101466.03;5076759;28;20379;-81
2021/12/11 11:30:14;;;;;;;15.38;4.82;;;;;;;7.00;84.94;101507.00;5075803;28;20480;-78
2021/12/11 11:32:40;;;;;;;17.30;4.55;;;;;;;6.76;85.27;101478.81;5075493;28;20024;-80
2021/12/11 11:35:10;;;;;;;18.70;5.88;;;;;;;6.83;85.47;101477.69;5076565;28;20374;-81
2021/12/11 11:37:36;;;;;;;;;;;;;;;7.15;85.28;101505.56;5076476;28;20021;-79
2021/12/11 11:40:11;;;;;;;14.63;5.82;;;;;;;7.08;85.20;101516.41;5090513;28;19912;-80
2021/12/11 11:42:38;;;;;;;19.23;5.63;;;;;;;6.87;85.67;101504.88;5087512;28;20024;-80
2021/12/11 11:45:07;;;;;;;15.00;5.18;;;;;;;6.99;86.30;101521.13;5092584;28;20051;-79
2021/12/11 11:47:33;;;;;;;10.03;4.40;;;;;;;7.17;85.19;101524.00;5080437;28;20020;-78
2021/12/11 11:49:59;;;;;;;17.00;5.82;;;;;;;6.98;84.95;101507.97;5086472;28;20281;-80
2021/12/11 11:52:27;;;;;;;17.60;4.85;;;;;;;7.05;85.78;101530.63;5086236;28;20025;-80
2021/12/11 11:54:58;;;;;;;16.58;6.72;;;;;;;7.04;85.54;101534.19;5093939;28;20059;-81